sensor_id;sensor_type;location;lat;lon;timestamp;pressure;altitude;pressure_sealevel;temperature;humidity
32243;BME280;18731;42.830;24.390;2023-06-26T09:40:05;94108.91;;;23.34;62.46
32243;BME280;18731;42.830;24.390;2023-06-26T11:28:13;94129.00;;;25.62;54.42
32243;BME280;18731;42.830;24.390;2023-06-26T13:19:07;94211.03;;;21.84;75.22
32243;BME280;18731;42.830;24.390;2023-06-26T13:50:00;94217.19;;;21.88;75.14
32243;BME280;18731;42.830;24.390;2023-06-26T14:23:27;94308.72;;;24.14;66.05
32243;BME280;18731;42.830;24.390;2023-06-26T14:25:53;94317.09;;;24.03;66.92
32243;BME280;18731;42.830;24.390;2023-06-26T14:28:19;94348.94;;;24.29;67.58
32243;BME280;18731;42.830;24.390;2023-06-26T14:30:45;94345.75;;;24.34;68.55
32243;BME280;18731;42.830;24.390;2023-06-26T14:33:10;94349.44;;;24.44;68.96
32243;BME280;18731;42.830;24.390;2023-06-26T14:35:36;94349.09;;;24.42;68.43
32243;BME280;18731;42.830;24.390;2023-06-26T14:38:01;94352.13;;;24.24;70.16
32243;BME280;18731;42.830;24.390;2023-06-26T14:40:27;94328.34;;;24.05;71.08
32243;BME280;18731;42.830;24.390;2023-06-26T14:42:53;94338.53;;;24.01;71.40
32243;BME280;18731;42.830;24.390;2023-06-26T14:45:19;94339.03;;;23.72;72.24
32243;BME280;18731;42.830;24.390;2023-06-26T14:47:44;94330.41;;;23.78;71.24
32243;BME280;18731;42.830;24.390;2023-06-26T14:50:10;94320.44;;;23.67;70.65
32243;BME280;18731;42.830;24.390;2023-06-26T14:52:36;94322.31;;;23.47;72.64
32243;BME280;18731;42.830;24.390;2023-06-26T14:55:01;94324.69;;;23.45;70.48
32243;BME280;18731;42.830;24.390;2023-06-26T14:57:27;94322.03;;;23.65;71.19
32243;BME280;18731;42.830;24.390;2023-06-26T14:59:52;94314.56;;;23.92;70.99
32243;BME280;18731;42.830;24.390;2023-06-26T15:02:18;94318.09;;;24.32;73.68
32243;BME280;18731;42.830;24.390;2023-06-26T15:04:44;94328.09;;;24.59;69.25
32243;BME280;18731;42.830;24.390;2023-06-26T15:07:09;94317.56;;;24.77;65.69
32243;BME280;18731;42.830;24.390;2023-06-26T15:09:36;94308.44;;;24.67;67.63
32243;BME280;18731;42.830;24.390;2023-06-26T15:12:02;94310.03;;;24.65;64.82
32243;BME280;18731;42.830;24.390;2023-06-26T15:14:28;94313.97;;;24.64;66.35
32243;BME280;18731;42.830;24.390;2023-06-26T15:16:54;94316.72;;;24.44;68.57
32243;BME280;18731;42.830;24.390;2023-06-26T15:19:19;94307.69;;;24.27;72.12
32243;BME280;18731;42.830;24.390;2023-06-26T15:21:45;94307.38;;;24.02;71.97
32243;BME280;18731;42.830;24.390;2023-06-26T15:24:11;94301.97;;;23.98;73.44
32243;BME280;18731;42.830;24.390;2023-06-26T15:26:36;94318.41;;;23.95;73.97
32243;BME280;18731;42.830;24.390;2023-06-26T15:29:02;94282.38;;;23.64;74.10
32243;BME280;18731;42.830;24.390;2023-06-26T15:31:29;94306.19;;;23.60;75.29
32243;BME280;18731;42.830;24.390;2023-06-26T15:33:56;94309.75;;;23.53;76.19
32243;BME280;18731;42.830;24.390;2023-06-26T15:36:22;94314.63;;;23.42;76.87
32243;BME280;18731;42.830;24.390;2023-06-26T15:38:48;94323.22;;;23.37;77.64
32243;BME280;18731;42.830;24.390;2023-06-26T15:41:13;94320.84;;;23.39;77.41
32243;BME280;18731;42.830;24.390;2023-06-26T15:43:39;94311.69;;;23.29;76.81
32243;BME280;18731;42.830;24.390;2023-06-26T15:46:06;94290.88;;;23.16;75.66
32243;BME280;18731;42.830;24.390;2023-06-26T15:48:32;94308.38;;;22.91;76.79
32243;BME280;18731;42.830;24.390;2023-06-26T15:50:58;94308.91;;;22.79;77.87
32243;BME280;18731;42.830;24.390;2023-06-26T15:53:34;94302.41;;;22.69;77.83
32243;BME280;18731;42.830;24.390;2023-06-26T15:56:01;94304.41;;;22.65;77.90
32243;BME280;18731;42.830;24.390;2023-06-26T15:58:27;94307.84;;;22.69;78.58
32243;BME280;18731;42.830;24.390;2023-06-26T16:00:53;94291.44;;;22.76;78.81
32243;BME280;18731;42.830;24.390;2023-06-26T16:03:18;94301.88;;;22.82;81.26
32243;BME280;18731;42.830;24.390;2023-06-26T16:05:44;94296.09;;;22.80;79.32
32243;BME280;18731;42.830;24.390;2023-06-26T16:08:10;94319.09;;;23.02;79.72
32243;BME280;18731;42.830;24.390;2023-06-26T16:10:35;94314.31;;;23.09;79.12
32243;BME280;18731;42.830;24.390;2023-06-26T16:13:01;94320.94;;;23.08;78.13
32243;BME280;18731;42.830;24.390;2023-06-26T16:15:27;94312.81;;;23.05;77.92
32243;BME280;18731;42.830;24.390;2023-06-26T16:17:52;94324.59;;;22.98;79.05
32243;BME280;18731;42.830;24.390;2023-06-26T16:20:18;94309.75;;;23.03;80.20
32243;BME280;18731;42.830;24.390;2023-06-26T16:22:44;94317.50;;;23.04;78.71
32243;BME280;18731;42.830;24.390;2023-06-26T16:25:09;94294.94;;;22.77;78.38
32243;BME280;18731;42.830;24.390;2023-06-26T16:27:36;94323.66;;;23.08;77.74
32243;BME280;18731;42.830;24.390;2023-06-26T16:30:01;94323.91;;;23.18;76.72
32243;BME280;18731;42.830;24.390;2023-06-26T16:32:27;94327.06;;;23.16;77.63
32243;BME280;18731;42.830;24.390;2023-06-26T16:34:53;94312.97;;;22.94;77.46
32243;BME280;18731;42.830;24.390;2023-06-26T16:37:18;94327.63;;;23.04;77.27
32243;BME280;18731;42.830;24.390;2023-06-26T16:39:44;94324.69;;;22.91;78.97
32243;BME280;18731;42.830;24.390;2023-06-26T16:42:10;94308.69;;;22.66;79.56
32243;BME280;18731;42.830;24.390;2023-06-26T16:44:36;94335.84;;;22.70;81.22
32243;BME280;18731;42.830;24.390;2023-06-26T16:47:02;94343.00;;;22.57;80.20
32243;BME280;18731;42.830;24.390;2023-06-26T16:49:28;94346.34;;;22.37;80.98
32243;BME280;18731;42.830;24.390;2023-06-26T16:51:54;94332.34;;;22.01;82.59
32243;BME280;18731;42.830;24.390;2023-06-26T16:54:23;94353.09;;;21.85;83.92
32243;BME280;18731;42.830;24.390;2023-06-26T16:56:51;94344.56;;;21.82;83.93
32243;BME280;18731;42.830;24.390;2023-06-26T16:59:17;94359.22;;;21.92;84.04
32243;BME280;18731;42.830;24.390;2023-06-26T17:01:47;94365.47;;;21.89;83.63
32243;BME280;18731;42.830;24.390;2023-06-26T17:04:13;94369.81;;;21.79;85.04
32243;BME280;18731;42.830;24.390;2023-06-26T17:06:39;94363.28;;;21.73;85.74
32243;BME280;18731;42.830;24.390;2023-06-26T17:09:04;94351.75;;;21.62;85.56
32243;BME280;18731;42.830;24.390;2023-06-26T17:11:30;94364.53;;;21.62;85.54
32243;BME280;18731;42.830;24.390;2023-06-26T17:13:56;94371.19;;;21.57;85.62
32243;BME280;18731;42.830;24.390;2023-06-26T17:16:21;94378.47;;;21.67;85.52
32243;BME280;18731;42.830;24.390;2023-06-26T17:18:47;94367.91;;;21.76;85.20
32243;BME280;18731;42.830;24.390;2023-06-26T17:21:13;94378.75;;;21.80;84.38
32243;BME280;18731;42.830;24.390;2023-06-26T17:23:39;94369.09;;;21.75;83.54
32243;BME280;18731;42.830;24.390;2023-06-26T17:26:05;94369.63;;;21.56;84.02
32243;BME280;18731;42.830;24.390;2023-06-26T17:28:31;94370.88;;;21.48;84.24
32243;BME280;18731;42.830;24.390;2023-06-26T17:30:57;94370.09;;;21.47;82.89
32243;BME280;18731;42.830;24.390;2023-06-26T17:33:22;94378.31;;;21.37;83.18
32243;BME280;18731;42.830;24.390;2023-06-26T17:35:48;94382.66;;;21.20;84.89
32243;BME280;18731;42.830;24.390;2023-06-26T17:38:14;94379.56;;;21.22;85.09
32243;BME280;18731;42.830;24.390;2023-06-26T17:40:40;94388.47;;;21.26;85.43
32243;BME280;18731;42.830;24.390;2023-06-26T17:43:06;94373.81;;;21.12;85.51
32243;BME280;18731;42.830;24.390;2023-06-26T17:45:32;94377.69;;;21.11;85.29
32243;BME280;18731;42.830;24.390;2023-06-26T17:47:59;94391.59;;;21.17;85.17
32243;BME280;18731;42.830;24.390;2023-06-26T17:50:26;94388.16;;;21.09;84.95
32243;BME280;18731;42.830;24.390;2023-06-26T17:52:52;94388.22;;;20.99;85.22
32243;BME280;18731;42.830;24.390;2023-06-26T17:55:17;94371.63;;;20.86;84.59
32243;BME280;18731;42.830;24.390;2023-06-26T17:57:43;94394.50;;;20.78;84.87
32243;BME280;18731;42.830;24.390;2023-06-26T18:00:09;94392.59;;;20.82;84.54
32243;BME280;18731;42.830;24.390;2023-06-26T18:02:36;94388.72;;;20.72;84.23
32243;BME280;18731;42.830;24.390;2023-06-26T18:05:06;94381.03;;;20.60;84.53
32243;BME280;18731;42.830;24.390;2023-06-26T18:07:32;94388.44;;;20.45;84.94
32243;BME280;18731;42.830;24.390;2023-06-26T18:09:58;94385.72;;;20.38;85.41
32243;BME280;18731;42.830;24.390;2023-06-26T18:12:24;94385.75;;;20.31;85.05
32243;BME280;18731;42.830;24.390;2023-06-26T18:14:50;94395.84;;;20.23;84.56
32243;BME280;18731;42.830;24.390;2023-06-26T18:17:15;94402.81;;;20.17;85.53
32243;BME280;18731;42.830;24.390;2023-06-26T18:19:41;94414.03;;;20.19;85.63
32243;BME280;18731;42.830;24.390;2023-06-26T18:22:07;94421.41;;;20.08;85.92
32243;BME280;18731;42.830;24.390;2023-06-26T18:24:33;94423.00;;;19.84;85.60
32243;BME280;18731;42.830;24.390;2023-06-26T18:26:58;94410.25;;;19.64;86.30
32243;BME280;18731;42.830;24.390;2023-06-26T18:29:24;94426.47;;;19.74;87.02
32243;BME280;18731;42.830;24.390;2023-06-26T18:31:51;94429.97;;;19.71;87.98
32243;BME280;18731;42.830;24.390;2023-06-26T18:34:16;94433.84;;;19.70;88.37
32243;BME280;18731;42.830;24.390;2023-06-26T18:36:42;94434.22;;;19.65;88.63
32243;BME280;18731;42.830;24.390;2023-06-26T18:39:09;94444.28;;;19.65;88.22
32243;BME280;18731;42.830;24.390;2023-06-26T18:41:35;94451.63;;;19.64;87.02
32243;BME280;18731;42.830;24.390;2023-06-26T18:44:01;94433.41;;;19.47;87.23
32243;BME280;18731;42.830;24.390;2023-06-26T18:46:27;94460.53;;;19.61;86.81
32243;BME280;18731;42.830;24.390;2023-06-26T18:49:03;94454.72;;;19.52;86.86
32243;BME280;18731;42.830;24.390;2023-06-26T18:51:33;94452.34;;;19.40;88.07
32243;BME280;18731;42.830;24.390;2023-06-26T18:53:59;94458.53;;;19.37;88.98
32243;BME280;18731;42.830;24.390;2023-06-26T18:56:32;94467.81;;;19.43;89.85
32243;BME280;18731;42.830;24.390;2023-06-26T18:58:58;94466.28;;;19.49;89.58
32243;BME280;18731;42.830;24.390;2023-06-26T19:01:24;94463.19;;;19.47;89.46
32243;BME280;18731;42.830;24.390;2023-06-26T19:03:50;94430.66;;;19.15;89.26
32243;BME280;18731;42.830;24.390;2023-06-26T19:06:16;94466.66;;;19.44;89.35
32243;BME280;18731;42.830;24.390;2023-06-26T19:08:43;94414.72;;;18.81;90.25
32243;BME280;18731;42.830;24.390;2023-06-26T19:11:09;94468.56;;;19.25;90.47
32243;BME280;18731;42.830;24.390;2023-06-26T19:13:35;94468.19;;;19.31;90.16
32243;BME280;18731;42.830;24.390;2023-06-26T19:16:01;94472.06;;;19.37;89.91
32243;BME280;18731;42.830;24.390;2023-06-26T19:18:27;94463.53;;;19.24;89.36
32243;BME280;18731;42.830;24.390;2023-06-26T19:20:53;94477.03;;;19.13;89.67
32243;BME280;18731;42.830;24.390;2023-06-26T19:23:19;94490.94;;;19.15;89.88
32243;BME280;18731;42.830;24.390;2023-06-26T19:25:45;94482.44;;;19.10;89.54
32243;BME280;18731;42.830;24.390;2023-06-26T19:28:11;94497.53;;;19.21;88.34
32243;BME280;18731;42.830;24.390;2023-06-26T19:30:38;94480.81;;;18.94;89.33
32243;BME280;18731;42.830;24.390;2023-06-26T19:33:04;94477.28;;;18.80;90.65
32243;BME280;18731;42.830;24.390;2023-06-26T19:35:29;94480.78;;;18.80;91.03
32243;BME280;18731;42.830;24.390;2023-06-26T19:37:55;94475.34;;;18.73;92.32
32243;BME280;18731;42.830;24.390;2023-06-26T19:40:21;94473.03;;;18.79;92.48
32243;BME280;18731;42.830;24.390;2023-06-26T19:42:48;94482.31;;;18.78;92.96
32243;BME280;18731;42.830;24.390;2023-06-26T19:45:13;94480.78;;;18.84;93.20
32243;BME280;18731;42.830;24.390;2023-06-26T19:47:39;94482.28;;;18.71;93.51
32243;BME280;18731;42.830;24.390;2023-06-26T19:50:07;94474.38;;;18.44;94.86
32243;BME280;18731;42.830;24.390;2023-06-26T19:52:37;94484.84;;;18.49;95.15
32243;BME280;18731;42.830;24.390;2023-06-26T19:55:03;94495.28;;;18.54;95.12
32243;BME280;18731;42.830;24.390;2023-06-26T19:57:29;94491.81;;;18.54;95.72
32243;BME280;18731;42.830;24.390;2023-06-26T19:59:55;94493.00;;;18.56;95.43
32243;BME280;18731;42.830;24.390;2023-06-26T20:02:21;94489.94;;;18.61;95.42
32243;BME280;18731;42.830;24.390;2023-06-26T20:04:47;94490.34;;;18.63;95.05
32243;BME280;18731;42.830;24.390;2023-06-26T20:07:13;94488.88;;;18.77;94.57
32243;BME280;18731;42.830;24.390;2023-06-26T20:09:38;94488.50;;;18.82;93.65
32243;BME280;18731;42.830;24.390;2023-06-26T20:12:05;94481.88;;;18.65;94.03
32243;BME280;18731;42.830;24.390;2023-06-26T20:14:31;94480.75;;;18.77;93.53
32243;BME280;18731;42.830;24.390;2023-06-26T20:16:57;94474.19;;;18.78;93.29
32243;BME280;18731;42.830;24.390;2023-06-26T20:19:24;94476.13;;;18.81;92.69
32243;BME280;18731;42.830;24.390;2023-06-26T20:21:50;94466.50;;;18.83;92.56
32243;BME280;18731;42.830;24.390;2023-06-26T20:24:16;94476.16;;;18.84;91.51
32243;BME280;18731;42.830;24.390;2023-06-26T20:26:42;94489.28;;;18.82;91.93
32243;BME280;18731;42.830;24.390;2023-06-26T20:29:09;94485.81;;;18.82;91.20
32243;BME280;18731;42.830;24.390;2023-06-26T20:31:35;94483.09;;;18.82;91.75
32243;BME280;18731;42.830;24.390;2023-06-26T20:34:01;94483.00;;;18.64;93.38
32243;BME280;18731;42.830;24.390;2023-06-26T20:36:27;94487.66;;;18.63;93.77
32243;BME280;18731;42.830;24.390;2023-06-26T20:38:52;94470.59;;;18.56;93.10
32243;BME280;18731;42.830;24.390;2023-06-26T20:41:18;94481.47;;;18.63;93.05
32243;BME280;18731;42.830;24.390;2023-06-26T20:43:44;94490.00;;;18.69;93.20
32243;BME280;18731;42.830;24.390;2023-06-26T20:46:10;94486.91;;;18.74;92.84
32243;BME280;18731;42.830;24.390;2023-06-26T20:48:39;94481.13;;;18.72;93.30
32243;BME280;18731;42.830;24.390;2023-06-26T20:51:05;94489.25;;;18.79;93.16
32243;BME280;18731;42.830;24.390;2023-06-26T20:53:31;94493.94;;;18.85;93.30
32243;BME280;18731;42.830;24.390;2023-06-26T20:55:57;94498.19;;;18.90;93.85
32243;BME280;18731;42.830;24.390;2023-06-26T20:58:22;94497.03;;;18.91;92.90
32243;BME280;18731;42.830;24.390;2023-06-26T21:00:48;94485.03;;;18.85;93.33
32243;BME280;18731;42.830;24.390;2023-06-26T21:03:15;94495.50;;;18.90;93.01
32243;BME280;18731;42.830;24.390;2023-06-26T21:05:40;94439.69;;;18.57;92.70
32243;BME280;18731;42.830;24.390;2023-06-26T21:08:06;94491.63;;;18.91;92.67
32243;BME280;18731;42.830;24.390;2023-06-26T21:10:31;94495.88;;;18.88;92.43
32243;BME280;18731;42.830;24.390;2023-06-26T21:12:57;94491.25;;;18.92;91.98
32243;BME280;18731;42.830;24.390;2023-06-26T21:15:23;94487.78;;;18.92;91.75
32243;BME280;18731;42.830;24.390;2023-06-26T21:17:49;94490.06;;;18.83;91.39
32243;BME280;18731;42.830;24.390;2023-06-26T21:20:15;94480.38;;;18.78;91.23
32243;BME280;18731;42.830;24.390;2023-06-26T21:22:40;94483.50;;;18.84;91.33
32243;BME280;18731;42.830;24.390;2023-06-26T21:25:06;94478.06;;;18.80;90.87
32243;BME280;18731;42.830;24.390;2023-06-26T21:27:33;94460.63;;;18.63;90.39
